Hauptseite
METAR-TAF:

METAR-TAF

Flughäfen :

Sumburgh, Shetlandinseln, Schottland

Flughafen Sumburgh

Breite: 59-53N, Länge: 001-18W, Höhe: 5 m

Beobachtung

Neuester Wetterbericht von vor 16 Minuten, um 23:50 UTC
Wind 6 kt aus Nord
Temperatur 3°C
Luftfeuchtigkeit 70%
Luftdruck 1015 hPa
Sichtweite 10 km oder mehr

METAR: EGPB 192350Z AUTO 35006KT 9999 BKN033/// 03/M02 Q1015

Zeit: 00:06 (00:06 UTC)

Prognose

Neuester Wetterbericht von vor 1 Stunde und 5 Minuten, um 23:01 UTC
Gültige Prognose vom 20 um 00 UTC bis 20 um 09 UTC
Wind 8 kt aus Nord/Nordost
Sichtweite 10 km oder mehr
Aufgelockert bewölkt in der Höhe von 2500 ft

TAF: EGPB 192301Z 2000/2009 02008KT 9999 SCT025

Wetterbeobachtungen und Prognosen von mehr als 4000 Flughäfen (METAR und TAF Bericht).

Die verfügbaren Stationen werden durch gelbe und rote Markierungen auf der Karte dargestellt.

Führen Sie die Maus auf sie, um den Namen der Station zu sehen.

Darauf klicken, um die Beobachtung von Wetterbeobachtungen und Prognosen zu sehen.

Um die Karte zu ändern : klicken Sie auf den grünen Tasten mit einem schwarzen Kreuz Zum Vergrößern, auf den grünen Button mit einem Gedankenstrich zu verkleinern, oder auf die grünen Pfeile für benachbarte Karten.


METAR-TAF: